Terminal Aerodrome Forecast
Issued by NWS

Home | Current Version | Previous Version | Text Only | Print | Product List | Glossary On
Versions: 1 2 3 4 5 6 7 8 9 10 11 12 13 14 15 16 17 18 19
000
FTUS45 KRIW 032320
TAFJAC
TAF
KJAC 032320Z 0400/0424 20012G18KT P6SM VCTS FEW080CB BKN110
     FM040130 20009KT P6SM VCSH FEW080 SCT110
     FM040700 04007KT P6SM SCT100
     FM041600 21011KT P6SM FEW080
     FM041800 20017G28KT P6SM SCT250
      AMD LTD TO CLD VIS AND WIND=

USA.gov is the U.S. government's official web portal to all federal, state and local government web resources and services.